LGKRLGPZ

Guest
Details From LGKR - IOANNIS KAPODISTRIAS INTL
To LGPZ - AKTIO
Flight Number -
Tags generated
Created
Modified
Stats Distance 57 nm / 105 km
Max Altitude 4,300 ft / 1,311 m
Waypoints 3
Social Downloads 0
Likes 0
Share VATSIM

Download

Looking for another format? Having issues loading an existing format? Contact us
Advertisement - Login to hide

Notes

Basic altitude profile: - Ascent Rate: 2500ft/min - Ascent Speed: 250kts - Cruise Altitude: 35000ft - Cruise Speed: 420kts - Descent Rate: 1500ft/min - Descent Speed: 250kts Options: - Use NATs: yes - Use PACOTS: yes - Use low airways: yes - Use high airways: no

Route

LGKR KRK LGPZ

ID Type Via Altitude Latitude Longitude Leg Dist Tot Dist Heading (true) Name
O LGKR APT - 0 ft / 0 m 39.60178˚ 19.91191˚ - 0 nm - IOANNIS KAPODISTRIAS INTL
KRK VOR - 4,300 ft / 1,311 m 39.44389˚ 20.07278˚ 12 nm 12 nm 142° / 142° KERKIRA VOR-DME
O LGPZ APT - 0 ft / 0 m 38.92547˚ 20.76531˚ 44 nm 56 nm 134° / 134° AKTIO

Altitude Profile

Advertisement - Login to hide

LGKR

Details ICAO LGKR (CFU)
Name IOANNIS KAPODISTRIAS INTL
Region Greece
Timezone Europe/Athens (UTC+2.0)
Stats Elevation 6 ft / 2 m (AMSL)
Location 39.601779° 19.911908°
Runways 1
Magnetic Variation 4.098° E

METAR

LGKR 160120Z 17014KT 9999 SCT012 BKN025 17/14 Q1010 NOSIG

Decode

TAF

TAF LGKR 152300Z 1600/1624 18015KT 9999 SCT015 BKN025 PROB40 TEMPO 1600/1618 5000 RA SCT010 BKN020 BKN080 PROB30 TEMPO 1606/1615 4000 TSRA SCT010 FEW018CB BKN020 BECMG 1610/1612 24018KT BECMG 1618/1620 16005KT

Decode

Departure Runways

ID Width Length Bearing (true) Bearing (mag) Surface Threshold Offset Overrun Length
17 148 ft / 45 m 7,815 ft / 2,382 m 168.81° 164.71° Asphalt 1,348 ft / 411 m 0 ft / 0 m
35 148 ft / 45 m 7,815 ft / 2,382 m 348.81° 344.71° Asphalt 213 ft / 65 m 0 ft / 0 m

LGPZ

Details ICAO LGPZ (PVK)
Name AKTIO
Region Greece
Timezone Europe/Athens (UTC+2.0)
Stats Elevation 11 ft / 3 m (AMSL)
Location 38.925465° 20.765311°
Runways 1
Magnetic Variation 4.160° E

METAR

LGPZ 160050Z 18006KT 9999 SCT020 16/13 Q1013 BLU

Decode

TAF

TAF LGPZ 152300Z 1600/1624 19010KT 9999 FEW020 SCT025 BECMG 1603/1605 SCT020 BKN080 PROB40 TEMPO 1605/1624 6000 RA BKN020 BKN080 PROB40 TEMPO 1608/1616 3000 TSRA FEW016CB BKN020 OVC080 BECMG 1613/1615 06010KT

Decode

Destination Runways

ID Width Length Bearing (true) Bearing (mag) Surface Threshold Offset Overrun Length
07L 148 ft / 45 m 9,404 ft / 2,866 m 67.79° 63.63° Asphalt 0 ft / 0 m 80 ft / 24 m
25R 148 ft / 45 m 9,404 ft / 2,866 m 247.81° 243.65° Asphalt 492 ft / 150 m 380 ft / 116 m

Popular Alternatives